Terminal Aerodrome Forecast
Issued by NWS Caribou, ME

Home | Current Version | Previous Version | Text Only | Print | Product List | Glossary On
Versions: 1 2 3 4 5 6 7 8 9 10 11 12 13 14 15 16 17 18 19 20 21
000
FTUS41 KCAR 250500
TAFCAR
TAF
KCAR 250538Z 2506/2606 34007KT P6SM SCT020 OVC035
      TEMPO 2506/2508 -SHRA BKN020
     FM251700 05005KT P6SM OVC035
     FM260400 08003KT 6SM -SHRA OVC020=

USA.gov is the U.S. government's official web portal to all federal, state and local government web resources and services.